sensor_id;sensor_type;location;lat;lon;timestamp;temperature;humidity
60701;DHT22;46541;49.894;10.886;2023-05-07T00:01:18;15.40;99.90
60701;DHT22;46541;49.894;10.886;2023-05-07T00:03:45;15.40;99.90
60701;DHT22;46541;49.894;10.886;2023-05-07T00:06:13;15.40;99.90
60701;DHT22;46541;49.894;10.886;2023-05-07T00:08:40;15.30;99.90
60701;DHT22;46541;49.894;10.886;2023-05-07T00:11:07;15.30;99.90
60701;DHT22;46541;49.894;10.886;2023-05-07T00:13:34;15.30;99.90
60701;DHT22;46541;49.894;10.886;2023-05-07T00:16:02;15.30;99.90
60701;DHT22;46541;49.894;10.886;2023-05-07T00:18:29;15.30;99.90
60701;DHT22;46541;49.894;10.886;2023-05-07T00:20:56;15.30;99.90
60701;DHT22;46541;49.894;10.886;2023-05-07T00:23:23;15.30;99.90
60701;DHT22;46541;49.894;10.886;2023-05-07T00:25:50;15.20;99.90
60701;DHT22;46541;49.894;10.886;2023-05-07T00:28:16;15.20;99.90
60701;DHT22;46541;49.894;10.886;2023-05-07T00:30:43;15.20;99.90
60701;DHT22;46541;49.894;10.886;2023-05-07T00:33:10;15.20;99.90
60701;DHT22;46541;49.894;10.886;2023-05-07T00:35:37;15.30;99.90
60701;DHT22;46541;49.894;10.886;2023-05-07T00:38:03;15.30;99.90
60701;DHT22;46541;49.894;10.886;2023-05-07T00:40:30;15.40;99.90
60701;DHT22;46541;49.894;10.886;2023-05-07T00:42:57;15.40;99.90
60701;DHT22;46541;49.894;10.886;2023-05-07T00:45:27;15.40;99.90
60701;DHT22;46541;49.894;10.886;2023-05-07T00:48:00;15.40;99.90
60701;DHT22;46541;49.894;10.886;2023-05-07T00:50:28;15.40;99.90
60701;DHT22;46541;49.894;10.886;2023-05-07T00:52:55;15.40;99.90
60701;DHT22;46541;49.894;10.886;2023-05-07T00:55:23;15.40;99.90
60701;DHT22;46541;49.894;10.886;2023-05-07T00:57:50;15.40;99.90
60701;DHT22;46541;49.894;10.886;2023-05-07T01:00:18;15.40;99.90
60701;DHT22;46541;49.894;10.886;2023-05-07T01:02:45;15.40;99.90
60701;DHT22;46541;49.894;10.886;2023-05-07T01:05:15;15.50;99.90
60701;DHT22;46541;49.894;10.886;2023-05-07T01:07:43;15.50;99.90
60701;DHT22;46541;49.894;10.886;2023-05-07T01:10:11;15.50;99.90
60701;DHT22;46541;49.894;10.886;2023-05-07T01:12:40;15.40;99.90
60701;DHT22;46541;49.894;10.886;2023-05-07T01:15:08;15.40;99.90
60701;DHT22;46541;49.894;10.886;2023-05-07T01:17:37;15.40;99.90
60701;DHT22;46541;49.894;10.886;2023-05-07T01:20:05;15.40;99.90
60701;DHT22;46541;49.894;10.886;2023-05-07T01:22:38;15.40;99.90
60701;DHT22;46541;49.894;10.886;2023-05-07T01:25:06;15.40;99.90
60701;DHT22;46541;49.894;10.886;2023-05-07T01:27:36;15.40;99.90
60701;DHT22;46541;49.894;10.886;2023-05-07T01:30:04;15.40;99.90
60701;DHT22;46541;49.894;10.886;2023-05-07T01:32:36;15.40;99.90
60701;DHT22;46541;49.894;10.886;2023-05-07T01:35:05;15.40;99.90
60701;DHT22;46541;49.894;10.886;2023-05-07T01:37:34;15.40;99.90
60701;DHT22;46541;49.894;10.886;2023-05-07T01:40:01;15.40;99.90
60701;DHT22;46541;49.894;10.886;2023-05-07T01:42:29;15.40;99.90
60701;DHT22;46541;49.894;10.886;2023-05-07T01:44:56;15.30;99.90
60701;DHT22;46541;49.894;10.886;2023-05-07T01:47:24;15.30;99.90
60701;DHT22;46541;49.894;10.886;2023-05-07T01:49:51;15.30;99.90
60701;DHT22;46541;49.894;10.886;2023-05-07T01:52:18;15.30;99.90
60701;DHT22;46541;49.894;10.886;2023-05-07T01:54:45;15.30;99.90
60701;DHT22;46541;49.894;10.886;2023-05-07T01:57:11;15.30;99.90
60701;DHT22;46541;49.894;10.886;2023-05-07T01:59:38;15.30;99.90
60701;DHT22;46541;49.894;10.886;2023-05-07T02:02:05;15.30;99.90
60701;DHT22;46541;49.894;10.886;2023-05-07T02:04:31;15.30;99.90
60701;DHT22;46541;49.894;10.886;2023-05-07T02:06:58;15.30;99.90
60701;DHT22;46541;49.894;10.886;2023-05-07T02:09:25;15.30;99.90
60701;DHT22;46541;49.894;10.886;2023-05-07T02:11:51;15.30;99.90
60701;DHT22;46541;49.894;10.886;2023-05-07T02:14:18;15.20;99.90
60701;DHT22;46541;49.894;10.886;2023-05-07T02:16:46;15.20;99.90
60701;DHT22;46541;49.894;10.886;2023-05-07T02:19:13;15.20;99.90
60701;DHT22;46541;49.894;10.886;2023-05-07T02:21:40;15.10;99.90
60701;DHT22;46541;49.894;10.886;2023-05-07T02:24:06;15.10;99.90
60701;DHT22;46541;49.894;10.886;2023-05-07T02:26:33;15.10;99.90
60701;DHT22;46541;49.894;10.886;2023-05-07T02:29:00;15.10;99.90
60701;DHT22;46541;49.894;10.886;2023-05-07T02:31:27;15.00;99.90
60701;DHT22;46541;49.894;10.886;2023-05-07T02:33:54;15.00;99.90
60701;DHT22;46541;49.894;10.886;2023-05-07T02:36:20;15.00;99.90
60701;DHT22;46541;49.894;10.886;2023-05-07T02:38:47;15.00;99.90
60701;DHT22;46541;49.894;10.886;2023-05-07T02:41:14;15.00;99.90
60701;DHT22;46541;49.894;10.886;2023-05-07T02:43:40;15.00;99.90
60701;DHT22;46541;49.894;10.886;2023-05-07T02:46:08;15.00;99.90
60701;DHT22;46541;49.894;10.886;2023-05-07T02:48:35;15.00;99.90
60701;DHT22;46541;49.894;10.886;2023-05-07T02:51:03;14.90;99.90
60701;DHT22;46541;49.894;10.886;2023-05-07T02:53:30;14.90;99.90
60701;DHT22;46541;49.894;10.886;2023-05-07T02:55:57;14.90;99.90
60701;DHT22;46541;49.894;10.886;2023-05-07T02:58:25;14.80;99.90
60701;DHT22;46541;49.894;10.886;2023-05-07T03:00:52;14.80;99.90
60701;DHT22;46541;49.894;10.886;2023-05-07T03:03:19;14.80;99.90
60701;DHT22;46541;49.894;10.886;2023-05-07T03:05:46;14.80;99.90
60701;DHT22;46541;49.894;10.886;2023-05-07T03:08:12;14.80;99.90
60701;DHT22;46541;49.894;10.886;2023-05-07T03:10:39;14.70;99.90
60701;DHT22;46541;49.894;10.886;2023-05-07T03:13:06;14.70;99.90
60701;DHT22;46541;49.894;10.886;2023-05-07T03:15:33;14.70;99.90
60701;DHT22;46541;49.894;10.886;2023-05-07T03:18:00;14.60;99.90
60701;DHT22;46541;49.894;10.886;2023-05-07T03:20:27;14.60;99.90
60701;DHT22;46541;49.894;10.886;2023-05-07T03:22:53;14.60;99.90
60701;DHT22;46541;49.894;10.886;2023-05-07T03:25:20;14.50;99.90
60701;DHT22;46541;49.894;10.886;2023-05-07T03:27:47;14.50;99.90
60701;DHT22;46541;49.894;10.886;2023-05-07T03:30:14;14.40;99.90
60701;DHT22;46541;49.894;10.886;2023-05-07T03:32:41;14.40;99.90
60701;DHT22;46541;49.894;10.886;2023-05-07T03:35:07;14.30;99.90
60701;DHT22;46541;49.894;10.886;2023-05-07T03:37:34;14.30;99.90
60701;DHT22;46541;49.894;10.886;2023-05-07T03:40:01;14.30;99.90
60701;DHT22;46541;49.894;10.886;2023-05-07T03:42:28;14.30;99.90
60701;DHT22;46541;49.894;10.886;2023-05-07T03:44:55;14.30;99.90
60701;DHT22;46541;49.894;10.886;2023-05-07T03:47:22;14.20;99.90
60701;DHT22;46541;49.894;10.886;2023-05-07T03:49:49;14.30;99.90
60701;DHT22;46541;49.894;10.886;2023-05-07T03:52:16;14.30;99.90
60701;DHT22;46541;49.894;10.886;2023-05-07T03:54:48;14.20;99.90
60701;DHT22;46541;49.894;10.886;2023-05-07T03:57:15;14.10;99.90
60701;DHT22;46541;49.894;10.886;2023-05-07T03:59:42;14.10;99.90
60701;DHT22;46541;49.894;10.886;2023-05-07T04:02:09;14.10;99.90
60701;DHT22;46541;49.894;10.886;2023-05-07T04:04:35;14.10;99.90
60701;DHT22;46541;49.894;10.886;2023-05-07T04:07:02;14.10;99.90
60701;DHT22;46541;49.894;10.886;2023-05-07T04:09:29;14.00;99.90
60701;DHT22;46541;49.894;10.886;2023-05-07T04:11:56;14.00;99.90
60701;DHT22;46541;49.894;10.886;2023-05-07T04:14:22;14.00;99.90
60701;DHT22;46541;49.894;10.886;2023-05-07T04:16:49;14.00;99.90
60701;DHT22;46541;49.894;10.886;2023-05-07T04:19:16;14.00;99.90
60701;DHT22;46541;49.894;10.886;2023-05-07T04:21:43;13.90;99.90
60701;DHT22;46541;49.894;10.886;2023-05-07T04:24:10;13.90;99.90
60701;DHT22;46541;49.894;10.886;2023-05-07T04:26:36;13.90;99.90
60701;DHT22;46541;49.894;10.886;2023-05-07T04:29:03;14.00;99.90
60701;DHT22;46541;49.894;10.886;2023-05-07T04:31:30;14.00;99.90
60701;DHT22;46541;49.894;10.886;2023-05-07T04:33:57;14.10;99.90
60701;DHT22;46541;49.894;10.886;2023-05-07T04:36:24;14.10;99.90
60701;DHT22;46541;49.894;10.886;2023-05-07T04:38:53;14.10;99.90
60701;DHT22;46541;49.894;10.886;2023-05-07T04:41:20;14.10;99.90
60701;DHT22;46541;49.894;10.886;2023-05-07T04:43:47;14.10;99.90
60701;DHT22;46541;49.894;10.886;2023-05-07T04:46:14;14.10;99.90
60701;DHT22;46541;49.894;10.886;2023-05-07T04:48:41;14.20;99.90
60701;DHT22;46541;49.894;10.886;2023-05-07T04:51:07;14.30;99.90
60701;DHT22;46541;49.894;10.886;2023-05-07T04:53:34;14.30;99.90
60701;DHT22;46541;49.894;10.886;2023-05-07T04:56:01;14.40;99.90
60701;DHT22;46541;49.894;10.886;2023-05-07T04:58:27;14.40;99.90
60701;DHT22;46541;49.894;10.886;2023-05-07T05:00:58;14.40;99.90
60701;DHT22;46541;49.894;10.886;2023-05-07T05:03:25;14.40;99.90
60701;DHT22;46541;49.894;10.886;2023-05-07T05:05:52;14.40;99.90
60701;DHT22;46541;49.894;10.886;2023-05-07T05:08:19;14.40;99.90
60701;DHT22;46541;49.894;10.886;2023-05-07T05:10:46;14.40;99.90
60701;DHT22;46541;49.894;10.886;2023-05-07T05:13:15;14.40;99.90
60701;DHT22;46541;49.894;10.886;2023-05-07T05:15:42;14.50;99.90
60701;DHT22;46541;49.894;10.886;2023-05-07T05:18:09;14.50;99.90
60701;DHT22;46541;49.894;10.886;2023-05-07T05:20:35;14.50;99.90
60701;DHT22;46541;49.894;10.886;2023-05-07T05:23:02;14.50;99.90
60701;DHT22;46541;49.894;10.886;2023-05-07T05:25:29;14.50;99.90
60701;DHT22;46541;49.894;10.886;2023-05-07T05:27:56;14.50;99.90
60701;DHT22;46541;49.894;10.886;2023-05-07T05:30:23;14.50;99.90
60701;DHT22;46541;49.894;10.886;2023-05-07T05:32:49;14.60;99.90
60701;DHT22;46541;49.894;10.886;2023-05-07T05:35:16;14.60;99.90
60701;DHT22;46541;49.894;10.886;2023-05-07T05:37:43;14.60;99.90
60701;DHT22;46541;49.894;10.886;2023-05-07T05:40:10;14.50;99.90
60701;DHT22;46541;49.894;10.886;2023-05-07T05:42:37;14.50;99.90
60701;DHT22;46541;49.894;10.886;2023-05-07T05:45:04;14.60;99.90
60701;DHT22;46541;49.894;10.886;2023-05-07T05:47:31;14.70;99.90
60701;DHT22;46541;49.894;10.886;2023-05-07T05:49:58;14.70;99.90
60701;DHT22;46541;49.894;10.886;2023-05-07T05:52:25;14.80;99.90
60701;DHT22;46541;49.894;10.886;2023-05-07T05:54:53;14.90;99.90
60701;DHT22;46541;49.894;10.886;2023-05-07T05:57:19;15.10;99.90
60701;DHT22;46541;49.894;10.886;2023-05-07T05:59:46;15.30;99.90
60701;DHT22;46541;49.894;10.886;2023-05-07T06:02:14;15.50;99.90
60701;DHT22;46541;49.894;10.886;2023-05-07T06:04:41;15.70;99.90
60701;DHT22;46541;49.894;10.886;2023-05-07T06:07:09;15.90;99.90
60701;DHT22;46541;49.894;10.886;2023-05-07T06:09:36;16.10;99.90
60701;DHT22;46541;49.894;10.886;2023-05-07T06:12:03;16.20;99.90
60701;DHT22;46541;49.894;10.886;2023-05-07T06:14:29;16.40;99.90
60701;DHT22;46541;49.894;10.886;2023-05-07T06:16:57;16.40;99.90
60701;DHT22;46541;49.894;10.886;2023-05-07T06:19:24;16.50;99.90
60701;DHT22;46541;49.894;10.886;2023-05-07T06:21:50;16.60;99.90
60701;DHT22;46541;49.894;10.886;2023-05-07T06:24:17;16.70;99.90
60701;DHT22;46541;49.894;10.886;2023-05-07T06:26:44;16.80;99.90
60701;DHT22;46541;49.894;10.886;2023-05-07T06:29:10;16.70;99.90
60701;DHT22;46541;49.894;10.886;2023-05-07T06:31:37;16.60;99.90
60701;DHT22;46541;49.894;10.886;2023-05-07T06:34:04;16.60;99.90
60701;DHT22;46541;49.894;10.886;2023-05-07T06:36:31;16.70;99.90
60701;DHT22;46541;49.894;10.886;2023-05-07T06:38:58;16.70;99.90
60701;DHT22;46541;49.894;10.886;2023-05-07T06:41:24;16.70;99.90
60701;DHT22;46541;49.894;10.886;2023-05-07T06:43:52;16.70;99.90
60701;DHT22;46541;49.894;10.886;2023-05-07T06:46:19;16.70;99.90
60701;DHT22;46541;49.894;10.886;2023-05-07T06:48:45;16.70;99.90
60701;DHT22;46541;49.894;10.886;2023-05-07T06:51:12;16.80;99.90
60701;DHT22;46541;49.894;10.886;2023-05-07T06:53:39;16.90;99.90
60701;DHT22;46541;49.894;10.886;2023-05-07T06:56:06;17.10;99.90
60701;DHT22;46541;49.894;10.886;2023-05-07T06:58:32;17.30;99.90
60701;DHT22;46541;49.894;10.886;2023-05-07T07:00:59;17.40;99.90
60701;DHT22;46541;49.894;10.886;2023-05-07T07:03:26;17.50;99.90
60701;DHT22;46541;49.894;10.886;2023-05-07T07:05:53;17.70;99.90
60701;DHT22;46541;49.894;10.886;2023-05-07T07:08:21;17.70;99.90
60701;DHT22;46541;49.894;10.886;2023-05-07T07:10:48;17.60;99.90
60701;DHT22;46541;49.894;10.886;2023-05-07T07:13:15;17.60;99.90
60701;DHT22;46541;49.894;10.886;2023-05-07T07:15:42;17.60;99.90
60701;DHT22;46541;49.894;10.886;2023-05-07T07:18:08;17.70;99.90
60701;DHT22;46541;49.894;10.886;2023-05-07T07:20:35;17.80;99.90
60701;DHT22;46541;49.894;10.886;2023-05-07T07:23:02;17.90;99.90
60701;DHT22;46541;49.894;10.886;2023-05-07T07:25:29;18.10;99.90
60701;DHT22;46541;49.894;10.886;2023-05-07T07:27:55;18.20;99.90
60701;DHT22;46541;49.894;10.886;2023-05-07T07:30:22;18.30;99.90
60701;DHT22;46541;49.894;10.886;2023-05-07T07:32:49;18.50;99.90
60701;DHT22;46541;49.894;10.886;2023-05-07T07:35:16;18.60;99.90
60701;DHT22;46541;49.894;10.886;2023-05-07T07:37:42;18.60;99.90
60701;DHT22;46541;49.894;10.886;2023-05-07T07:40:09;18.50;99.90
60701;DHT22;46541;49.894;10.886;2023-05-07T07:42:37;18.60;99.90
60701;DHT22;46541;49.894;10.886;2023-05-07T07:45:04;18.80;99.90
60701;DHT22;46541;49.894;10.886;2023-05-07T07:47:31;18.80;99.90
60701;DHT22;46541;49.894;10.886;2023-05-07T07:49:57;18.80;99.90
60701;DHT22;46541;49.894;10.886;2023-05-07T07:52:24;18.90;99.90
60701;DHT22;46541;49.894;10.886;2023-05-07T07:54:51;18.90;99.90
60701;DHT22;46541;49.894;10.886;2023-05-07T07:57:17;19.10;99.90
60701;DHT22;46541;49.894;10.886;2023-05-07T07:59:44;19.10;99.90
60701;DHT22;46541;49.894;10.886;2023-05-07T08:02:11;19.10;99.90
60701;DHT22;46541;49.894;10.886;2023-05-07T08:04:38;19.10;99.90
60701;DHT22;46541;49.894;10.886;2023-05-07T08:07:05;19.10;99.90
60701;DHT22;46541;49.894;10.886;2023-05-07T08:09:32;19.10;99.90
60701;DHT22;46541;49.894;10.886;2023-05-07T08:11:58;19.30;99.90
60701;DHT22;46541;49.894;10.886;2023-05-07T08:14:25;19.50;99.90
60701;DHT22;46541;49.894;10.886;2023-05-07T08:16:52;19.60;99.90
60701;DHT22;46541;49.894;10.886;2023-05-07T08:19:19;19.60;99.90
60701;DHT22;46541;49.894;10.886;2023-05-07T08:21:46;19.80;99.90
60701;DHT22;46541;49.894;10.886;2023-05-07T08:24:17;20.00;99.90
60701;DHT22;46541;49.894;10.886;2023-05-07T08:26:44;20.30;99.90
60701;DHT22;46541;49.894;10.886;2023-05-07T08:29:12;20.20;99.90
60701;DHT22;46541;49.894;10.886;2023-05-07T08:31:39;20.20;99.90
60701;DHT22;46541;49.894;10.886;2023-05-07T08:34:06;20.40;99.90
60701;DHT22;46541;49.894;10.886;2023-05-07T08:36:35;20.50;99.90
60701;DHT22;46541;49.894;10.886;2023-05-07T08:39:02;20.70;99.90
60701;DHT22;46541;49.894;10.886;2023-05-07T08:41:29;20.70;99.90
60701;DHT22;46541;49.894;10.886;2023-05-07T08:43:58;20.70;99.90
60701;DHT22;46541;49.894;10.886;2023-05-07T08:46:31;20.80;99.90
60701;DHT22;46541;49.894;10.886;2023-05-07T08:48:58;20.90;99.90
60701;DHT22;46541;49.894;10.886;2023-05-07T08:51:25;21.20;99.90
60701;DHT22;46541;49.894;10.886;2023-05-07T08:53:52;21.50;99.90
60701;DHT22;46541;49.894;10.886;2023-05-07T08:56:18;21.50;99.90
60701;DHT22;46541;49.894;10.886;2023-05-07T08:58:48;21.60;99.90
60701;DHT22;46541;49.894;10.886;2023-05-07T09:01:16;21.50;99.80
60701;DHT22;46541;49.894;10.886;2023-05-07T09:03:45;21.60;99.70
60701;DHT22;46541;49.894;10.886;2023-05-07T09:06:12;21.50;98.80
60701;DHT22;46541;49.894;10.886;2023-05-07T09:08:39;21.60;99.30
60701;DHT22;46541;49.894;10.886;2023-05-07T09:11:05;21.80;98.70
60701;DHT22;46541;49.894;10.886;2023-05-07T09:13:32;22.10;98.90
60701;DHT22;46541;49.894;10.886;2023-05-07T09:16:10;22.30;98.60
60701;DHT22;46541;49.894;10.886;2023-05-07T09:18:44;22.70;97.40
60701;DHT22;46541;49.894;10.886;2023-05-07T09:21:15;23.10;96.60
60701;DHT22;46541;49.894;10.886;2023-05-07T09:23:42;23.20;95.60
60701;DHT22;46541;49.894;10.886;2023-05-07T09:26:08;23.40;95.10
60701;DHT22;46541;49.894;10.886;2023-05-07T09:28:42;23.40;93.70
60701;DHT22;46541;49.894;10.886;2023-05-07T09:31:10;23.30;94.40
60701;DHT22;46541;49.894;10.886;2023-05-07T09:33:37;23.40;94.10
60701;DHT22;46541;49.894;10.886;2023-05-07T09:36:06;23.00;92.90
60701;DHT22;46541;49.894;10.886;2023-05-07T09:38:34;23.10;93.00
60701;DHT22;46541;49.894;10.886;2023-05-07T09:41:09;23.30;93.80
60701;DHT22;46541;49.894;10.886;2023-05-07T09:43:38;23.60;92.90
60701;DHT22;46541;49.894;10.886;2023-05-07T09:46:13;23.80;92.70
60701;DHT22;46541;49.894;10.886;2023-05-07T09:48:43;23.70;91.40
60701;DHT22;46541;49.894;10.886;2023-05-07T09:51:34;23.80;92.00
60701;DHT22;46541;49.894;10.886;2023-05-07T09:54:05;24.10;91.30
60701;DHT22;46541;49.894;10.886;2023-05-07T09:56:33;24.20;90.80
60701;DHT22;46541;49.894;10.886;2023-05-07T09:59:00;24.10;91.10
60701;DHT22;46541;49.894;10.886;2023-05-07T10:01:29;23.70;90.50
60701;DHT22;46541;49.894;10.886;2023-05-07T10:03:57;23.40;90.50
60701;DHT22;46541;49.894;10.886;2023-05-07T10:06:25;23.50;90.50
60701;DHT22;46541;49.894;10.886;2023-05-07T10:08:52;23.40;90.50
60701;DHT22;46541;49.894;10.886;2023-05-07T10:11:22;23.40;90.60
60701;DHT22;46541;49.894;10.886;2023-05-07T10:13:48;23.40;90.60
60701;DHT22;46541;49.894;10.886;2023-05-07T10:16:17;23.40;90.80
60701;DHT22;46541;49.894;10.886;2023-05-07T10:18:45;23.50;90.70
60701;DHT22;46541;49.894;10.886;2023-05-07T10:21:18;23.70;90.50
60701;DHT22;46541;49.894;10.886;2023-05-07T10:23:53;23.80;89.60
60701;DHT22;46541;49.894;10.886;2023-05-07T10:26:22;23.90;88.80
60701;DHT22;46541;49.894;10.886;2023-05-07T10:28:54;23.90;90.10
60701;DHT22;46541;49.894;10.886;2023-05-07T10:31:31;23.80;88.60
60701;DHT22;46541;49.894;10.886;2023-05-07T10:34:02;23.70;87.90
60701;DHT22;46541;49.894;10.886;2023-05-07T10:36:33;23.70;87.90
60701;DHT22;46541;49.894;10.886;2023-05-07T10:39:05;23.60;88.20
60701;DHT22;46541;49.894;10.886;2023-05-07T10:41:32;23.70;87.60
60701;DHT22;46541;49.894;10.886;2023-05-07T10:44:00;23.70;88.90
60701;DHT22;46541;49.894;10.886;2023-05-07T10:46:28;23.90;86.30
60701;DHT22;46541;49.894;10.886;2023-05-07T10:51:30;23.90;85.70
60701;DHT22;46541;49.894;10.886;2023-05-07T10:56:38;23.90;85.70
60701;DHT22;46541;49.894;10.886;2023-05-07T11:01:53;23.80;85.20
60701;DHT22;46541;49.894;10.886;2023-05-07T11:04:20;24.10;85.00
60701;DHT22;46541;49.894;10.886;2023-05-07T11:15:13;23.80;86.40
60701;DHT22;46541;49.894;10.886;2023-05-07T11:17:57;24.10;85.60
60701;DHT22;46541;49.894;10.886;2023-05-07T11:20:50;24.10;83.80
60701;DHT22;46541;49.894;10.886;2023-05-07T11:26:03;24.20;83.80
60701;DHT22;46541;49.894;10.886;2023-05-07T11:28:33;24.30;81.50
60701;DHT22;46541;49.894;10.886;2023-05-07T11:31:02;24.40;82.60
60701;DHT22;46541;49.894;10.886;2023-05-07T11:33:30;24.60;81.90
60701;DHT22;46541;49.894;10.886;2023-05-07T11:35:57;24.80;81.80
60701;DHT22;46541;49.894;10.886;2023-05-07T11:38:25;24.90;79.80
60701;DHT22;46541;49.894;10.886;2023-05-07T11:40:54;25.00;78.90
60701;DHT22;46541;49.894;10.886;2023-05-07T11:43:21;25.10;78.80
60701;DHT22;46541;49.894;10.886;2023-05-07T11:45:51;25.30;78.40
60701;DHT22;46541;49.894;10.886;2023-05-07T11:48:21;25.40;75.30
60701;DHT22;46541;49.894;10.886;2023-05-07T11:50:54;25.40;74.20
60701;DHT22;46541;49.894;10.886;2023-05-07T11:53:24;25.40;75.60
60701;DHT22;46541;49.894;10.886;2023-05-07T11:55:58;25.50;73.20
60701;DHT22;46541;49.894;10.886;2023-05-07T11:58:25;25.50;74.60
60701;DHT22;46541;49.894;10.886;2023-05-07T12:00:54;25.70;74.20
60701;DHT22;46541;49.894;10.886;2023-05-07T12:03:21;25.80;73.80
60701;DHT22;46541;49.894;10.886;2023-05-07T12:05:48;25.80;70.50
60701;DHT22;46541;49.894;10.886;2023-05-07T12:08:19;25.80;69.60
60701;DHT22;46541;49.894;10.886;2023-05-07T12:10:48;25.80;70.20
60701;DHT22;46541;49.894;10.886;2023-05-07T12:13:19;25.80;71.50
60701;DHT22;46541;49.894;10.886;2023-05-07T12:15:46;25.40;74.00
60701;DHT22;46541;49.894;10.886;2023-05-07T12:18:16;25.10;73.40
60701;DHT22;46541;49.894;10.886;2023-05-07T12:20:43;24.80;74.60
60701;DHT22;46541;49.894;10.886;2023-05-07T12:23:10;24.30;74.40
60701;DHT22;46541;49.894;10.886;2023-05-07T12:25:42;24.10;76.00
60701;DHT22;46541;49.894;10.886;2023-05-07T12:28:18;24.10;75.60
60701;DHT22;46541;49.894;10.886;2023-05-07T12:30:47;24.00;76.00
60701;DHT22;46541;49.894;10.886;2023-05-07T12:33:18;23.90;75.90
60701;DHT22;46541;49.894;10.886;2023-05-07T12:35:47;24.00;75.70
60701;DHT22;46541;49.894;10.886;2023-05-07T12:38:16;23.80;75.80
60701;DHT22;46541;49.894;10.886;2023-05-07T12:40:48;23.70;76.40
60701;DHT22;46541;49.894;10.886;2023-05-07T12:43:20;23.60;76.70
60701;DHT22;46541;49.894;10.886;2023-05-07T12:45:49;23.40;77.20
60701;DHT22;46541;49.894;10.886;2023-05-07T12:48:17;23.40;78.60
60701;DHT22;46541;49.894;10.886;2023-05-07T12:50:44;23.40;77.90
60701;DHT22;46541;49.894;10.886;2023-05-07T12:53:12;23.40;78.10
60701;DHT22;46541;49.894;10.886;2023-05-07T12:55:47;23.70;77.00
60701;DHT22;46541;49.894;10.886;2023-05-07T12:58:24;23.90;76.70
60701;DHT22;46541;49.894;10.886;2023-05-07T13:00:51;24.10;76.20
60701;DHT22;46541;49.894;10.886;2023-05-07T13:03:32;24.30;76.00
60701;DHT22;46541;49.894;10.886;2023-05-07T13:06:01;24.30;75.30
60701;DHT22;46541;49.894;10.886;2023-05-07T13:08:33;24.30;75.40
60701;DHT22;46541;49.894;10.886;2023-05-07T13:11:02;24.30;75.40
60701;DHT22;46541;49.894;10.886;2023-05-07T13:13:35;24.30;74.80
60701;DHT22;46541;49.894;10.886;2023-05-07T13:16:03;24.30;74.40
60701;DHT22;46541;49.894;10.886;2023-05-07T13:18:31;24.50;75.40
60701;DHT22;46541;49.894;10.886;2023-05-07T13:20:58;24.60;75.60
60701;DHT22;46541;49.894;10.886;2023-05-07T13:23:26;24.60;73.80
60701;DHT22;46541;49.894;10.886;2023-05-07T13:25:53;24.50;73.40
60701;DHT22;46541;49.894;10.886;2023-05-07T13:28:24;24.50;73.10
60701;DHT22;46541;49.894;10.886;2023-05-07T13:30:51;24.50;72.30
60701;DHT22;46541;49.894;10.886;2023-05-07T13:33:21;24.50;72.20
60701;DHT22;46541;49.894;10.886;2023-05-07T13:35:48;24.60;72.70
60701;DHT22;46541;49.894;10.886;2023-05-07T13:38:14;24.70;72.20
60701;DHT22;46541;49.894;10.886;2023-05-07T13:40:42;24.80;72.50
60701;DHT22;46541;49.894;10.886;2023-05-07T13:43:09;24.90;72.30
60701;DHT22;46541;49.894;10.886;2023-05-07T13:45:37;24.90;71.80
60701;DHT22;46541;49.894;10.886;2023-05-07T13:48:04;24.70;71.70
60701;DHT22;46541;49.894;10.886;2023-05-07T13:50:31;24.40;72.30
60701;DHT22;46541;49.894;10.886;2023-05-07T13:52:57;24.20;72.70
60701;DHT22;46541;49.894;10.886;2023-05-07T13:55:24;24.00;72.70
60701;DHT22;46541;49.894;10.886;2023-05-07T13:57:59;23.90;73.20
60701;DHT22;46541;49.894;10.886;2023-05-07T14:00:27;23.90;73.30
60701;DHT22;46541;49.894;10.886;2023-05-07T14:02:55;23.90;73.10
60701;DHT22;46541;49.894;10.886;2023-05-07T14:05:22;23.80;73.20
60701;DHT22;46541;49.894;10.886;2023-05-07T14:07:55;23.90;73.40
60701;DHT22;46541;49.894;10.886;2023-05-07T14:10:23;23.90;72.50
60701;DHT22;46541;49.894;10.886;2023-05-07T14:12:50;23.90;73.10
60701;DHT22;46541;49.894;10.886;2023-05-07T14:15:16;23.90;73.00
60701;DHT22;46541;49.894;10.886;2023-05-07T14:17:43;23.90;73.40
60701;DHT22;46541;49.894;10.886;2023-05-07T14:20:11;23.90;71.80
60701;DHT22;46541;49.894;10.886;2023-05-07T14:22:39;23.70;71.20
60701;DHT22;46541;49.894;10.886;2023-05-07T14:25:06;23.70;71.90
60701;DHT22;46541;49.894;10.886;2023-05-07T14:27:33;23.50;71.90
60701;DHT22;46541;49.894;10.886;2023-05-07T14:30:00;23.40;72.70
60701;DHT22;46541;49.894;10.886;2023-05-07T14:32:26;23.40;72.40
60701;DHT22;46541;49.894;10.886;2023-05-07T14:34:53;23.30;73.20
60701;DHT22;46541;49.894;10.886;2023-05-07T14:37:20;23.30;73.70
60701;DHT22;46541;49.894;10.886;2023-05-07T14:39:47;23.20;74.10
60701;DHT22;46541;49.894;10.886;2023-05-07T14:42:17;23.20;73.80
60701;DHT22;46541;49.894;10.886;2023-05-07T14:44:43;23.30;73.40
60701;DHT22;46541;49.894;10.886;2023-05-07T14:47:12;23.20;73.30
60701;DHT22;46541;49.894;10.886;2023-05-07T14:49:39;23.30;73.00
60701;DHT22;46541;49.894;10.886;2023-05-07T14:52:07;23.40;73.30
60701;DHT22;46541;49.894;10.886;2023-05-07T14:54:36;23.50;73.40
60701;DHT22;46541;49.894;10.886;2023-05-07T14:57:05;23.50;73.20
60701;DHT22;46541;49.894;10.886;2023-05-07T14:59:32;23.50;72.60
60701;DHT22;46541;49.894;10.886;2023-05-07T15:01:59;23.40;72.20
60701;DHT22;46541;49.894;10.886;2023-05-07T15:04:29;23.30;72.50
60701;DHT22;46541;49.894;10.886;2023-05-07T15:06:56;23.40;72.40
60701;DHT22;46541;49.894;10.886;2023-05-07T15:09:22;23.40;72.80
60701;DHT22;46541;49.894;10.886;2023-05-07T15:11:49;23.60;72.90
60701;DHT22;46541;49.894;10.886;2023-05-07T15:14:16;23.60;71.90
60701;DHT22;46541;49.894;10.886;2023-05-07T15:16:42;23.60;72.40
60701;DHT22;46541;49.894;10.886;2023-05-07T15:19:09;23.60;72.10
60701;DHT22;46541;49.894;10.886;2023-05-07T15:21:36;23.40;71.10
60701;DHT22;46541;49.894;10.886;2023-05-07T15:24:03;23.40;72.40
60701;DHT22;46541;49.894;10.886;2023-05-07T15:26:30;23.30;71.70
60701;DHT22;46541;49.894;10.886;2023-05-07T15:28:57;23.30;71.60
60701;DHT22;46541;49.894;10.886;2023-05-07T15:31:24;23.20;72.10
60701;DHT22;46541;49.894;10.886;2023-05-07T15:33:52;23.30;72.50
60701;DHT22;46541;49.894;10.886;2023-05-07T15:36:20;23.30;73.30
60701;DHT22;46541;49.894;10.886;2023-05-07T15:38:46;23.20;71.20